createdAt,value
2018-09-20T00:01:03.943Z,99.90
2018-09-20T00:03:33.136Z,99.90
2018-09-20T00:06:01.760Z,99.90
2018-09-20T00:08:30.653Z,99.90
2018-09-20T00:10:59.230Z,99.90
2018-09-20T00:13:28.429Z,99.90
2018-09-20T00:15:57.045Z,99.90
2018-09-20T00:18:26.653Z,99.90
2018-09-20T00:20:55.349Z,99.90
2018-09-20T00:23:23.889Z,99.90
2018-09-20T00:25:52.940Z,99.90
2018-09-20T00:28:22.691Z,99.90
2018-09-20T00:30:51.231Z,99.90
2018-09-20T00:33:20.039Z,99.90
2018-09-20T00:35:48.613Z,99.90
2018-09-20T00:38:17.336Z,99.90
2018-09-20T00:40:45.953Z,99.90
2018-09-20T00:43:14.469Z,99.90
2018-09-20T00:45:43.261Z,99.90
2018-09-20T00:48:11.945Z,99.90
2018-09-20T00:50:40.943Z,99.90
2018-09-20T00:53:09.807Z,99.90
2018-09-20T00:55:38.321Z,99.90
2018-09-20T00:58:06.908Z,99.90
2018-09-20T01:00:35.601Z,99.90
2018-09-20T01:03:04.181Z,99.90
2018-09-20T01:05:33.667Z,99.90
2018-09-20T01:08:02.288Z,99.90
2018-09-20T01:10:30.863Z,99.90
2018-09-20T01:12:59.409Z,99.90
2018-09-20T01:15:27.912Z,99.90
2018-09-20T01:17:57.180Z,99.90
2018-09-20T01:20:25.714Z,99.90
2018-09-20T01:22:54.522Z,99.90
2018-09-20T01:25:23.384Z,99.90
2018-09-20T01:27:52.121Z,99.90
2018-09-20T01:30:20.912Z,99.90
2018-09-20T01:32:49.760Z,99.90
2018-09-20T01:35:18.328Z,99.90
2018-09-20T01:37:46.902Z,99.90
2018-09-20T01:40:15.561Z,99.90
2018-09-20T01:42:44.578Z,99.90
2018-09-20T01:45:13.264Z,99.90
2018-09-20T01:47:41.806Z,99.90
2018-09-20T01:50:10.386Z,99.90
2018-09-20T01:52:39.218Z,99.90
2018-09-20T01:55:07.798Z,99.90
2018-09-20T01:57:36.858Z,99.90
2018-09-20T02:00:05.792Z,99.90
2018-09-20T02:02:34.959Z,99.90
2018-09-20T02:05:04.166Z,99.90
2018-09-20T02:07:32.713Z,99.90
2018-09-20T02:10:01.265Z,99.90
2018-09-20T02:12:30.074Z,99.90
2018-09-20T02:14:58.718Z,99.90
2018-09-20T02:17:27.238Z,99.90
2018-09-20T02:19:55.861Z,99.90
2018-09-20T02:22:24.403Z,99.90
2018-09-20T02:24:53.070Z,99.90
2018-09-20T02:27:21.810Z,99.90
2018-09-20T02:29:50.643Z,99.90
2018-09-20T02:32:19.519Z,99.90
2018-09-20T02:34:48.049Z,99.90
2018-09-20T02:37:16.918Z,99.90
2018-09-20T02:39:45.841Z,99.90
2018-09-20T02:42:14.347Z,99.90
2018-09-20T02:44:43.352Z,99.90
2018-09-20T02:47:11.969Z,99.90
2018-09-20T02:49:41.239Z,99.90
2018-09-20T02:52:09.936Z,99.90
2018-09-20T02:54:38.896Z,99.90
2018-09-20T02:57:07.420Z,99.90
2018-09-20T02:59:36.006Z,99.90
2018-09-20T03:02:05.392Z,99.90
2018-09-20T03:04:34.389Z,99.90
2018-09-20T03:07:03.152Z,99.90
2018-09-20T03:09:31.847Z,99.90
2018-09-20T03:12:00.618Z,99.90
2018-09-20T03:14:29.147Z,99.90
2018-09-20T03:16:57.904Z,99.90
2018-09-20T03:19:26.528Z,99.90
2018-09-20T03:21:55.429Z,99.90
2018-09-20T03:24:25.446Z,99.90
2018-09-20T03:26:54.306Z,99.90
2018-09-20T03:29:23.502Z,99.90
2018-09-20T03:31:52.436Z,99.90
2018-09-20T03:34:21.000Z,99.90
2018-09-20T03:36:49.670Z,99.90
2018-09-20T03:39:18.225Z,99.90
2018-09-20T03:41:46.788Z,99.90
2018-09-20T03:44:15.443Z,99.90
2018-09-20T03:46:44.048Z,99.90
2018-09-20T03:49:12.648Z,99.90
2018-09-20T03:51:41.230Z,99.90
2018-09-20T03:54:09.797Z,99.90
2018-09-20T03:56:39.004Z,99.90
2018-09-20T03:59:07.594Z,99.90
2018-09-20T04:01:36.436Z,99.90
2018-09-20T04:04:05.620Z,99.90
2018-09-20T04:06:34.383Z,99.90
2018-09-20T04:09:03.157Z,99.90
2018-09-20T04:11:31.714Z,99.90
2018-09-20T04:14:00.242Z,99.90
2018-09-20T04:16:28.983Z,99.90
2018-09-20T04:18:57.607Z,99.90
2018-09-20T04:21:31.505Z,99.90
2018-09-20T04:24:01.007Z,99.90
2018-09-20T04:26:30.461Z,99.90
2018-09-20T04:28:59.796Z,99.90
2018-09-20T04:31:29.401Z,99.90
2018-09-20T04:33:59.215Z,99.90
2018-09-20T04:36:27.987Z,99.90
2018-09-20T04:38:57.134Z,99.90
2018-09-20T04:41:25.637Z,99.90
2018-09-20T04:43:54.948Z,99.90
2018-09-20T04:46:23.501Z,99.90
2018-09-20T04:48:52.187Z,99.90
2018-09-20T04:51:20.740Z,99.90
2018-09-20T04:53:49.668Z,99.90
2018-09-20T04:56:18.586Z,99.90
2018-09-20T04:58:47.251Z,99.90
2018-09-20T05:01:15.992Z,99.90
2018-09-20T05:03:45.206Z,99.90
2018-09-20T05:06:13.810Z,99.90
2018-09-20T05:08:42.348Z,99.90
2018-09-20T05:11:11.104Z,99.90
2018-09-20T05:13:40.574Z,99.90
2018-09-20T05:16:09.762Z,99.90
2018-09-20T05:18:38.320Z,99.90
2018-09-20T05:21:07.286Z,99.90
2018-09-20T05:23:36.063Z,99.90
2018-09-20T05:26:04.609Z,99.90
2018-09-20T05:28:33.118Z,99.90
2018-09-20T05:31:01.855Z,99.90
2018-09-20T05:33:30.499Z,99.90
2018-09-20T05:35:59.529Z,99.90
2018-09-20T05:38:28.210Z,99.90
2018-09-20T05:40:57.887Z,99.90
2018-09-20T05:43:27.226Z,99.90
2018-09-20T05:45:55.810Z,99.90
2018-09-20T05:48:24.372Z,99.90
2018-09-20T05:50:53.226Z,99.90
2018-09-20T05:53:22.346Z,99.90
2018-09-20T05:55:50.923Z,99.90
2018-09-20T05:58:19.547Z,99.90
2018-09-20T06:00:48.821Z,99.90
2018-09-20T06:03:17.505Z,99.90
2018-09-20T06:05:46.581Z,99.90
2018-09-20T06:08:15.539Z,99.90
2018-09-20T06:10:44.677Z,99.90
2018-09-20T06:13:13.536Z,99.90
2018-09-20T06:15:42.415Z,99.90
2018-09-20T06:18:11.301Z,99.90
2018-09-20T06:20:40.460Z,99.90
2018-09-20T06:23:09.433Z,99.90
2018-09-20T06:25:38.558Z,99.90
2018-09-20T06:28:07.317Z,99.90
2018-09-20T06:30:36.787Z,99.90
2018-09-20T06:33:05.845Z,99.90
2018-09-20T06:35:35.101Z,99.90
2018-09-20T06:38:04.045Z,99.90
2018-09-20T06:40:32.674Z,99.90
2018-09-20T06:43:01.652Z,99.90
2018-09-20T06:45:30.202Z,99.90
2018-09-20T06:47:59.253Z,99.90
2018-09-20T06:50:27.854Z,99.90
2018-09-20T06:52:56.394Z,99.90
2018-09-20T06:55:25.006Z,99.90
2018-09-20T06:57:53.864Z,99.90
2018-09-20T07:00:22.638Z,99.90
2018-09-20T07:02:51.342Z,99.90
2018-09-20T07:05:20.083Z,99.90
2018-09-20T07:07:49.193Z,99.90
2018-09-20T07:10:17.923Z,99.90
2018-09-20T07:12:46.547Z,99.90
2018-09-20T07:15:15.339Z,99.90
2018-09-20T07:17:43.968Z,99.90
2018-09-20T07:20:12.583Z,99.90
2018-09-20T07:22:41.162Z,99.90
2018-09-20T07:25:09.919Z,99.90
2018-09-20T07:27:38.669Z,99.90
2018-09-20T07:30:07.517Z,99.90
2018-09-20T07:32:36.482Z,99.90
2018-09-20T07:35:05.377Z,99.90
2018-09-20T07:37:34.269Z,99.90
2018-09-20T07:40:03.349Z,99.90
2018-09-20T07:42:32.015Z,99.90
2018-09-20T07:45:01.642Z,99.90
2018-09-20T07:47:31.090Z,99.90
2018-09-20T07:50:00.897Z,99.90
2018-09-20T07:52:29.509Z,99.90
2018-09-20T07:54:59.345Z,99.90
2018-09-20T07:57:30.125Z,99.90
2018-09-20T08:00:00.588Z,99.90
2018-09-20T08:02:29.381Z,99.90
2018-09-20T08:04:58.511Z,99.90
2018-09-20T08:07:27.499Z,99.90
2018-09-20T08:09:57.403Z,99.90
2018-09-20T08:12:25.966Z,99.90
2018-09-20T08:14:54.578Z,99.90
2018-09-20T08:17:23.851Z,99.90
2018-09-20T08:19:52.453Z,99.90
2018-09-20T08:22:21.446Z,99.90
2018-09-20T08:24:50.608Z,99.90
2018-09-20T08:27:19.145Z,99.90
2018-09-20T08:29:47.700Z,99.90
2018-09-20T08:32:16.970Z,99.90
2018-09-20T08:34:45.974Z,99.90
2018-09-20T08:37:15.309Z,99.90
2018-09-20T08:39:43.940Z,99.90
2018-09-20T08:42:12.642Z,99.90
2018-09-20T08:44:42.184Z,99.90
2018-09-20T08:47:10.764Z,99.90
2018-09-20T08:49:39.993Z,99.90
2018-09-20T08:52:08.830Z,99.90
2018-09-20T08:54:37.510Z,99.90
2018-09-20T08:57:06.543Z,99.90
2018-09-20T08:59:36.411Z,99.90
2018-09-20T09:02:05.103Z,99.90
2018-09-20T09:04:33.725Z,99.90
2018-09-20T09:07:03.216Z,99.90
2018-09-20T09:09:32.045Z,99.90
2018-09-20T09:12:01.071Z,99.90
2018-09-20T09:14:29.626Z,99.90
2018-09-20T09:16:58.392Z,99.90
2018-09-20T09:19:27.340Z,99.90
2018-09-20T09:21:56.669Z,99.90
2018-09-20T09:24:25.795Z,99.90
2018-09-20T09:26:54.947Z,99.90
2018-09-20T09:29:23.709Z,99.90
2018-09-20T09:31:52.655Z,99.90
2018-09-20T09:34:21.497Z,99.60
2018-09-20T09:36:50.267Z,99.00
2018-09-20T09:39:19.496Z,99.00
2018-09-20T09:41:48.934Z,99.10
2018-09-20T09:44:17.641Z,99.10
2018-09-20T09:46:46.595Z,99.20
2018-09-20T09:49:15.609Z,99.30
2018-09-20T09:51:44.839Z,98.80
2018-09-20T09:54:14.301Z,98.80
2018-09-20T09:56:42.855Z,98.80
2018-09-20T09:59:12.790Z,98.90
2018-09-20T10:01:42.576Z,98.70
2018-09-20T10:04:13.542Z,98.90
2018-09-20T10:06:42.225Z,98.00
2018-09-20T10:09:11.876Z,97.50
2018-09-20T10:11:40.879Z,97.50
2018-09-20T10:14:10.077Z,97.00
2018-09-20T10:16:39.121Z,96.80
2018-09-20T10:19:07.946Z,96.70
2018-09-20T10:21:36.768Z,96.60
2018-09-20T10:24:05.622Z,96.40
2018-09-20T10:26:34.454Z,96.20
2018-09-20T10:29:03.320Z,96.80
2018-09-20T10:31:33.055Z,96.90
2018-09-20T10:34:03.011Z,96.30
2018-09-20T10:36:33.222Z,96.00
2018-09-20T10:39:04.878Z,95.40
2018-09-20T10:41:34.995Z,95.20
2018-09-20T10:44:04.865Z,94.70
2018-09-20T10:46:34.062Z,94.10
2018-09-20T10:49:02.792Z,93.30
2018-09-20T10:51:32.776Z,93.40
2018-09-20T10:54:01.688Z,93.40
2018-09-20T10:56:30.278Z,93.60
2018-09-20T10:58:59.650Z,93.10
2018-09-20T11:01:28.243Z,92.40
2018-09-20T11:03:57.065Z,92.50
2018-09-20T11:06:25.751Z,92.10
2018-09-20T11:08:55.047Z,92.10
2018-09-20T11:11:25.147Z,92.00
2018-09-20T11:13:55.876Z,92.10
2018-09-20T11:16:25.069Z,91.80
2018-09-20T11:18:56.001Z,91.60
2018-09-20T11:21:24.799Z,90.50
2018-09-20T11:23:53.733Z,90.50
2018-09-20T11:26:22.793Z,91.20
2018-09-20T11:28:51.767Z,90.20
2018-09-20T11:31:24.223Z,89.20
2018-09-20T11:33:52.818Z,88.90
2018-09-20T11:36:22.045Z,88.90
2018-09-20T11:38:51.272Z,88.80
2018-09-20T11:41:20.213Z,86.80
2018-09-20T11:43:49.898Z,86.00
2018-09-20T11:46:18.558Z,86.10
2018-09-20T11:48:47.853Z,85.40
2018-09-20T11:51:16.772Z,85.50
2018-09-20T11:53:45.732Z,84.80
2018-09-20T11:56:14.552Z,84.60
2018-09-20T11:58:43.851Z,85.90
2018-09-20T12:01:13.080Z,84.50
2018-09-20T12:03:41.992Z,83.70
2018-09-20T12:06:10.699Z,84.10
2018-09-20T12:08:39.358Z,82.70
2018-09-20T12:11:08.200Z,82.60
2018-09-20T12:14:19.527Z,83.50
2018-09-20T12:16:49.258Z,83.00
2018-09-20T12:19:19.258Z,80.70
2018-09-20T12:21:49.622Z,80.70
2018-09-20T12:24:19.766Z,81.60
2018-09-20T12:26:52.330Z,82.30
2018-09-20T12:29:21.206Z,79.70
2018-09-20T12:31:50.129Z,79.20
2018-09-20T12:34:19.182Z,78.50
2018-09-20T12:36:49.058Z,78.90
2018-09-20T12:39:17.758Z,79.30
2018-09-20T12:41:47.040Z,78.70
2018-09-20T12:44:16.403Z,78.20
2018-09-20T12:46:47.668Z,77.70
2018-09-20T12:49:17.450Z,77.80
2018-09-20T12:51:46.180Z,77.20
2018-09-20T12:54:14.822Z,76.70
2018-09-20T12:56:43.448Z,76.60
2018-09-20T12:59:12.070Z,76.10
2018-09-20T13:01:41.171Z,75.30
2018-09-20T13:04:09.752Z,74.30
2018-09-20T13:06:38.431Z,75.30
2018-09-20T13:09:08.911Z,75.70
2018-09-20T13:11:37.489Z,76.50
2018-09-20T13:14:06.131Z,75.90
2018-09-20T13:16:34.707Z,75.90
2018-09-20T13:19:03.775Z,75.80
2018-09-20T13:21:32.403Z,75.90
2018-09-20T13:24:01.209Z,75.80
2018-09-20T13:26:29.815Z,75.80
2018-09-20T13:28:58.498Z,75.30
2018-09-20T13:31:27.159Z,74.20
2018-09-20T13:33:55.703Z,73.80
2018-09-20T13:36:24.298Z,75.00
2018-09-20T13:38:52.858Z,74.20
2018-09-20T13:41:21.931Z,74.60
2018-09-20T13:43:50.472Z,74.70
2018-09-20T13:46:19.389Z,74.60
2018-09-20T13:48:48.401Z,73.60
2018-09-20T13:51:17.798Z,74.00
2018-09-20T13:53:46.361Z,74.30
2018-09-20T13:56:15.253Z,74.70
2018-09-20T13:58:47.454Z,74.50
2018-09-20T14:01:17.031Z,74.50
2018-09-20T14:03:46.356Z,74.80
2018-09-20T14:06:15.359Z,73.90
2018-09-20T14:08:44.623Z,73.10
2018-09-20T14:11:13.948Z,72.30
2018-09-20T14:13:42.465Z,69.70
2018-09-20T14:16:11.212Z,67.70
2018-09-20T14:18:40.051Z,67.20
2018-09-20T14:21:09.159Z,67.70
2018-09-20T14:23:37.796Z,67.90
2018-09-20T14:26:07.878Z,68.50
2018-09-20T14:28:36.434Z,69.00
2018-09-20T14:31:06.301Z,69.70
2018-09-20T14:33:35.469Z,69.70
2018-09-20T14:36:05.124Z,70.80
2018-09-20T14:38:33.732Z,70.90
2018-09-20T14:41:02.603Z,71.00
2018-09-20T14:43:31.131Z,70.80
2018-09-20T14:46:00.378Z,71.00
2018-09-20T14:48:29.141Z,71.20
2018-09-20T14:50:57.862Z,71.10
2018-09-20T14:53:27.112Z,70.50
2018-09-20T14:55:57.825Z,70.50
2018-09-20T14:58:34.671Z,70.60
2018-09-20T15:01:07.627Z,69.70
2018-09-20T15:03:36.598Z,69.80
2018-09-20T15:06:05.576Z,70.00
2018-09-20T15:08:34.389Z,69.50
2018-09-20T15:11:03.284Z,68.60
2018-09-20T15:13:31.856Z,67.40
2018-09-20T15:16:00.558Z,67.10
2018-09-20T15:18:29.404Z,66.20
2018-09-20T15:20:58.328Z,65.80
2018-09-20T15:23:26.933Z,65.60
2018-09-20T15:25:55.794Z,65.90
2018-09-20T15:28:24.422Z,66.10
2018-09-20T15:30:52.950Z,67.50
2018-09-20T15:33:21.487Z,66.90
2018-09-20T15:35:50.774Z,66.90
2018-09-20T15:38:19.389Z,67.80
2018-09-20T15:40:48.132Z,67.60
2018-09-20T15:43:16.882Z,67.50
2018-09-20T15:45:45.572Z,67.40
2018-09-20T15:48:14.150Z,68.30
2018-09-20T15:57:27.510Z,68.70
2018-09-20T15:59:56.134Z,66.40
2018-09-20T16:02:25.004Z,65.80
2018-09-20T16:04:53.853Z,64.40
2018-09-20T16:07:22.994Z,63.20
2018-09-20T16:13:06.272Z,63.70
2018-09-20T16:15:34.973Z,64.30
2018-09-20T16:18:12.209Z,65.10
2018-09-20T16:20:51.447Z,65.90
2018-09-20T16:23:38.747Z,66.70
2018-09-20T16:26:09.653Z,67.50
2018-09-20T16:29:01.870Z,67.40
2018-09-20T16:40:22.997Z,67.80
2018-09-20T16:42:52.025Z,67.70
2018-09-20T16:45:20.872Z,68.30
2018-09-20T16:47:49.373Z,68.70
2018-09-20T16:50:17.947Z,68.70
2018-09-20T16:52:46.657Z,69.00
2018-09-20T16:55:15.758Z,69.30
2018-09-20T16:57:46.744Z,69.60
2018-09-20T17:00:15.377Z,69.80
2018-09-20T17:02:44.025Z,70.00
2018-09-20T17:05:12.656Z,70.40
2018-09-20T17:07:41.375Z,70.80
2018-09-20T17:10:10.638Z,71.10
2018-09-20T17:12:39.339Z,71.20
2018-09-20T17:15:08.101Z,71.50
2018-09-20T17:17:37.087Z,71.90
2018-09-20T17:20:05.738Z,72.30
2018-09-20T17:22:34.778Z,72.20
2018-09-20T17:25:03.384Z,72.30
2018-09-20T17:27:32.075Z,72.70
2018-09-20T17:30:01.098Z,73.00
2018-09-20T17:32:29.932Z,73.40
2018-09-20T17:34:59.398Z,74.00
2018-09-20T17:37:30.028Z,74.30
2018-09-20T17:40:00.781Z,74.80
2018-09-20T17:42:30.084Z,75.10
2018-09-20T17:44:58.866Z,75.50
2018-09-20T17:47:27.463Z,76.00
2018-09-20T17:49:55.996Z,76.50
2018-09-20T17:52:25.296Z,77.00
2018-09-20T17:54:55.372Z,77.60
2018-09-20T17:57:24.953Z,78.20
2018-09-20T17:59:57.620Z,78.30
2018-09-20T18:02:26.242Z,78.80
2018-09-20T18:04:54.741Z,79.20
2018-09-20T18:07:23.304Z,79.40
2018-09-20T18:09:52.024Z,79.50
2018-09-20T18:12:20.709Z,80.10
2018-09-20T18:14:50.122Z,80.40
2018-09-20T18:17:18.874Z,80.50
2018-09-20T18:19:47.688Z,80.80
2018-09-20T18:22:16.260Z,81.00
2018-09-20T18:24:44.748Z,81.30
2018-09-20T18:27:14.112Z,81.50
2018-09-20T18:29:43.100Z,82.00
2018-09-20T18:32:11.721Z,82.10
2018-09-20T18:34:40.726Z,82.60
2018-09-20T18:37:09.431Z,82.80
2018-09-20T18:39:38.125Z,82.90
2018-09-20T18:42:06.823Z,83.10
2018-09-20T18:46:13.314Z,83.60
2018-09-20T18:48:42.334Z,83.80
2018-09-20T18:51:10.864Z,84.40
2018-09-20T18:53:39.432Z,84.50
2018-09-20T18:56:08.152Z,84.80
2018-09-20T18:58:36.899Z,85.30
2018-09-20T19:01:06.003Z,85.60
2018-09-20T19:03:35.839Z,86.20
2018-09-20T19:06:04.813Z,86.30
2018-09-20T19:08:33.491Z,86.80
2018-09-20T19:11:02.240Z,86.90
2018-09-20T19:13:30.857Z,87.20
2018-09-20T19:15:59.900Z,87.40
2018-09-20T19:18:28.419Z,87.90
2018-09-20T19:20:57.055Z,88.00
2018-09-20T19:23:25.913Z,88.30
2018-09-20T19:25:54.422Z,88.60
2018-09-20T19:28:22.973Z,88.80
2018-09-20T19:30:51.495Z,89.10
2018-09-20T19:33:20.013Z,89.40
2018-09-20T19:35:48.526Z,89.60
2018-09-20T19:38:17.052Z,89.60
2018-09-20T19:40:45.594Z,89.60
2018-09-20T19:43:14.118Z,90.00
2018-09-20T19:47:12.702Z,90.00
2018-09-20T19:49:41.222Z,90.10
2018-09-20T19:52:09.769Z,90.20
2018-09-20T19:54:38.414Z,90.30
2018-09-20T19:57:06.900Z,90.40
2018-09-20T19:59:35.472Z,90.50
2018-09-20T20:02:04.042Z,90.60
2018-09-20T20:04:33.056Z,90.70
2018-09-20T20:07:01.799Z,90.70
2018-09-20T20:09:30.445Z,90.70
2018-09-20T20:11:58.965Z,90.60
2018-09-20T20:14:27.797Z,90.70
2018-09-20T20:16:56.353Z,90.70
2018-09-20T20:19:25.023Z,90.60
2018-09-20T20:21:53.837Z,90.60
2018-09-20T20:24:22.548Z,90.60
2018-09-20T20:26:51.093Z,90.60
2018-09-20T20:29:19.607Z,90.50
2018-09-20T20:31:48.456Z,90.60
2018-09-20T20:34:16.993Z,90.70
2018-09-20T20:36:45.493Z,90.60
2018-09-20T20:39:14.026Z,90.60
2018-09-20T20:41:42.785Z,90.70
2018-09-20T20:44:16.201Z,90.60
2018-09-20T20:46:44.949Z,91.00
2018-09-20T20:49:13.457Z,90.50
2018-09-20T20:51:41.976Z,90.40
2018-09-20T20:54:10.489Z,90.40
2018-09-20T20:56:39.051Z,90.50
2018-09-20T20:59:07.908Z,90.40
2018-09-20T21:01:36.410Z,90.40
2018-09-20T21:04:04.978Z,90.30
2018-09-20T21:06:33.623Z,90.40
2018-09-20T21:09:02.280Z,90.40
2018-09-20T21:11:31.701Z,90.40
2018-09-20T21:14:01.625Z,90.40
2018-09-20T21:16:30.404Z,90.50
2018-09-20T21:19:00.337Z,90.50
2018-09-20T21:21:28.820Z,90.60
2018-09-20T21:23:57.323Z,90.60
2018-09-20T21:26:25.867Z,90.60
2018-09-20T21:28:54.586Z,90.60
2018-09-20T21:31:23.191Z,90.70
2018-09-20T21:33:51.902Z,90.70
2018-09-20T21:36:20.451Z,90.90
2018-09-20T21:38:49.944Z,90.90
2018-09-20T21:41:18.867Z,90.90
2018-09-20T21:43:47.422Z,90.90
2018-09-20T21:46:16.253Z,91.00
2018-09-20T21:48:44.926Z,91.00
2018-09-20T21:51:18.778Z,91.00
2018-09-20T21:53:48.893Z,91.00
2018-09-20T21:56:17.442Z,91.10
2018-09-20T21:58:46.649Z,91.20
2018-09-20T22:01:15.171Z,91.20
2018-09-20T22:03:43.692Z,91.30
2018-09-20T22:06:12.738Z,91.40
2018-09-20T22:08:41.508Z,91.40
2018-09-20T22:11:10.176Z,91.50
2018-09-20T22:13:38.703Z,91.60
2018-09-20T22:16:07.242Z,91.70
2018-09-20T22:18:36.064Z,91.80
2018-09-20T22:21:04.902Z,92.00
2018-09-20T22:23:33.428Z,92.00
2018-09-20T22:26:02.155Z,92.00
2018-09-20T22:28:30.972Z,92.10
2018-09-20T22:30:59.666Z,92.10
2018-09-20T22:33:28.230Z,92.20
2018-09-20T22:35:57.216Z,92.20
2018-09-20T22:38:27.130Z,92.20
2018-09-20T22:40:55.828Z,92.30
2018-09-20T22:43:24.392Z,92.30
2018-09-20T22:45:53.010Z,92.40
2018-09-20T22:48:21.571Z,92.50
2018-09-20T22:52:19.677Z,92.60
2018-09-20T22:54:48.214Z,92.80
2018-09-20T22:57:16.834Z,92.80
2018-09-20T22:59:45.676Z,92.90
2018-09-20T23:02:14.850Z,93.00
2018-09-20T23:04:43.825Z,93.00
2018-09-20T23:07:12.716Z,93.00
2018-09-20T23:09:42.666Z,93.00
2018-09-20T23:12:11.297Z,93.10
2018-09-20T23:14:39.855Z,93.10
2018-09-20T23:17:08.519Z,93.20
2018-09-20T23:19:37.642Z,93.20
2018-09-20T23:22:06.241Z,93.30
2018-09-20T23:24:35.163Z,93.30
2018-09-20T23:27:03.942Z,93.40
2018-09-20T23:29:32.509Z,93.40
2018-09-20T23:32:01.217Z,93.50
2018-09-20T23:34:29.821Z,93.60
2018-09-20T23:36:58.356Z,93.70
2018-09-20T23:39:26.919Z,93.70
2018-09-20T23:41:55.661Z,93.80
2018-09-20T23:44:24.338Z,93.60
2018-09-20T23:46:52.886Z,93.90
2018-09-20T23:49:21.440Z,93.80
2018-09-20T23:51:49.990Z,93.90
2018-09-20T23:54:18.524Z,93.90
2018-09-20T23:56:47.046Z,94.00
2018-09-20T23:59:16.206Z,94.00
